Time,TemperatureF,DewpointF,PressureIn,WindDirection,WindDirectionDegrees,WindSpeedMPH,WindSpeedGustMPH,Humidity,HourlyPrecipIn,Conditions,Clouds,dailyrainin,SolarRadiationWatts/m^2,SoftwareType,DateUTC
2013-02-16 01:00:00,19.0,13.0,30.40,SSE,165,4.0,5.0,77,-99.99,,,-99.99,0.000000,,2013-02-16 08:00:00,
2013-02-16 01:52:00,19.0,13.0,30.40,SSE,165,4.0,5.0,77,-99.99,,,-99.99,0.000000,,2013-02-16 08:52:00,
2013-02-16 02:00:00,19.0,12.0,30.40,SE,140,5.0,5.0,76,-99.99,,,-99.99,0.000000,,2013-02-16 09:00:00,
2013-02-16 02:52:00,19.0,12.0,30.40,SE,140,5.0,5.0,76,-99.99,,,-99.99,0.000000,,2013-02-16 09:52:00,
2013-02-16 03:00:00,20.0,14.0,30.40,SE,136,5.0,5.0,78,-99.99,,,-99.99,0.000000,,2013-02-16 10:00:00,
2013-02-16 03:52:00,20.0,14.0,30.40,SE,136,5.0,5.0,78,-99.99,,,-99.99,0.000000,,2013-02-16 10:52:00,
2013-02-16 04:00:00,16.0,11.0,30.37,SE,133,5.0,6.0,81,-99.99,,,-99.99,0.000000,,2013-02-16 11:00:00,
2013-02-16 04:52:00,16.0,11.0,30.37,SE,133,5.0,6.0,81,-99.99,,,-99.99,0.000000,,2013-02-16 11:52:00,
2013-02-16 05:00:00,13.0,9.0,30.36,SE,135,5.0,5.0,84,-99.99,,,-99.99,0.000000,,2013-02-16 12:00:00,
2013-02-16 05:52:00,13.0,9.0,30.36,SE,135,5.0,5.0,84,-99.99,,,-99.99,0.000000,,2013-02-16 12:52:00,
2013-02-16 07:00:00,11.0,6.0,30.34,SE,138,5.0,6.0,80,-99.99,,,-99.99,0.010000,,2013-02-16 14:00:00,
2013-02-16 07:52:00,11.0,6.0,30.34,SE,138,5.0,6.0,80,-99.99,,,-99.99,0.010000,,2013-02-16 14:52:00,
2013-02-16 08:00:00,14.0,9.0,30.34,SE,135,5.0,7.0,78,-99.99,,,-99.99,11.170000,,2013-02-16 15:00:00,
2013-02-16 08:52:00,14.0,9.0,30.34,SE,135,5.0,7.0,78,-99.99,,,-99.99,11.170000,,2013-02-16 15:52:00,
2013-02-16 09:00:00,22.0,14.0,30.34,SE,136,5.0,6.0,73,-99.99,,,-99.99,178.399994,,2013-02-16 16:00:00,
2013-02-16 09:52:00,22.0,14.0,30.34,SE,136,5.0,6.0,73,-99.99,,,-99.99,178.399994,,2013-02-16 16:52:00,
2013-02-16 10:00:00,28.0,18.0,30.33,SE,146,5.0,5.0,65,-99.99,,,-99.99,373.100006,,2013-02-16 17:00:00,
2013-02-16 10:52:00,28.0,18.0,30.33,SE,146,5.0,5.0,65,-99.99,,,-99.99,373.100006,,2013-02-16 17:52:00,
2013-02-16 11:00:00,29.0,20.0,30.31,SSE,148,5.0,6.0,69,-99.99,,,-99.99,525.799988,,2013-02-16 18:00:00,
2013-02-16 11:52:00,29.0,20.0,30.31,SSE,148,5.0,6.0,69,-99.99,,,-99.99,525.799988,,2013-02-16 18:52:00,
2013-02-16 12:00:00,32.0,21.0,30.28,SSE,154,5.0,6.0,65,-99.99,,,-99.99,630.500000,,2013-02-16 19:00:00,
2013-02-16 12:52:00,32.0,21.0,30.28,SSE,154,5.0,6.0,65,-99.99,,,-99.99,630.500000,,2013-02-16 19:52:00,
2013-02-16 13:00:00,34.0,21.0,30.25,SSE,159,5.0,7.0,60,-99.99,,,-99.99,677.000000,,2013-02-16 20:00:00,
2013-02-16 13:52:00,34.0,21.0,30.25,SSE,159,5.0,7.0,60,-99.99,,,-99.99,677.000000,,2013-02-16 20:52:00,
2013-02-16 14:00:00,36.0,22.0,30.21,SSE,157,5.0,6.0,57,-99.99,,,-99.99,659.599976,,2013-02-16 21:00:00,
2013-02-16 14:52:00,36.0,22.0,30.21,SSE,157,5.0,6.0,57,-99.99,,,-99.99,659.599976,,2013-02-16 21:52:00,
2013-02-16 15:00:00,36.0,23.0,30.18,SSE,162,5.0,6.0,58,-99.99,,,-99.99,578.500000,,2013-02-16 22:00:00,
2013-02-16 15:52:00,36.0,23.0,30.18,SSE,162,5.0,6.0,58,-99.99,,,-99.99,578.500000,,2013-02-16 22:52:00,
2013-02-16 16:00:00,37.0,20.0,30.16,SSE,156,5.0,-999.0,51,-99.99,,,-99.99,437.600006,,2013-02-16 23:00:00,
2013-02-16 16:52:00,37.0,20.0,30.16,SSE,156,5.0,-999.0,51,-99.99,,,-99.99,437.600006,,2013-02-16 23:52:00,
2013-02-16 17:00:00,36.0,20.0,30.14,SSE,156,5.0,6.0,52,-99.99,,,-99.99,246.500000,,2013-02-17 00:00:00,
2013-02-16 17:52:00,36.0,20.0,30.14,SSE,156,5.0,6.0,52,-99.99,,,-99.99,246.500000,,2013-02-17 00:52:00,
2013-02-16 18:00:00,28.0,18.0,30.12,SE,144,4.0,6.0,66,-99.99,,,-99.99,60.990002,,2013-02-17 01:00:00,
2013-02-16 18:52:00,28.0,18.0,30.12,SE,144,4.0,6.0,66,-99.99,,,-99.99,60.990002,,2013-02-17 01:52:00,
2013-02-16 19:00:00,29.0,18.0,30.11,SE,143,4.0,5.0,65,-99.99,,,-99.99,0.630000,,2013-02-17 02:00:00,
2013-02-16 19:52:00,29.0,18.0,30.11,SE,143,4.0,5.0,65,-99.99,,,-99.99,0.630000,,2013-02-17 02:52:00,
2013-02-16 20:00:00,27.0,18.0,30.09,SSE,148,5.0,5.0,66,-99.99,,,-99.99,0.000000,,2013-02-17 03:00:00,
2013-02-16 20:52:00,27.0,18.0,30.09,SSE,148,5.0,5.0,66,-99.99,,,-99.99,0.000000,,2013-02-17 03:52:00,
2013-02-16 21:00:00,28.0,19.0,30.08,SE,139,5.0,6.0,69,-99.99,,,-99.99,0.000000,,2013-02-17 04:00:00,
2013-02-16 21:52:00,28.0,19.0,30.08,SE,139,5.0,6.0,69,-99.99,,,-99.99,0.000000,,2013-02-17 04:52:00,
2013-02-16 23:00:00,27.0,18.0,30.04,SE,129,5.0,5.0,67,-99.99,,,-99.99,0.000000,,2013-02-17 06:00:00,
2013-02-16 23:11:00,26.0,18.0,-100.00,SE,134,5.0,5.0,70,-99.99,,,-99.99,0.000000,,2013-02-17 06:11:00,
2013-02-16 23:21:00,26.0,18.0,-100.00,SE,134,5.0,5.0,70,-99.99,,,-99.99,0.000000,,2013-02-17 06:21:00,
2013-02-16 23:32:00,26.0,18.0,-100.00,SE,134,5.0,5.0,70,-99.99,,,-99.99,0.000000,,2013-02-17 06:32:00,
2013-02-16 23:42:00,26.0,18.0,-100.00,SE,134,5.0,5.0,70,-99.99,,,-99.99,0.000000,,2013-02-17 06:42:00,
2013-02-16 23:51:00,27.0,18.0,30.04,SE,129,5.0,5.0,67,-99.99,,,-99.99,0.000000,,2013-02-17 06:51:00,